Page Field
KFMY : now visible

Airfield :











YOU CAN JOIN US ON...

 
LOGIN :

Register | Disclaimer

   EN    FR    IT 

 









Legend :    VFR   Marginal VFR   IFR   Intensive IFR   Very Intensive IFR
Visi :
Ceiling :
>= 8 km
>= 3000ft
5 to 8 km
1000 to 3000 ft
1500m to 5 km
500 to 1000 ft
800 to 1500m
200 to 500 ft
< 800m
< 200 ft
Symbols :   Thunderstorms  Fog  Heavy snow  Heavy precipitations  Wind > 20 kt






- Airport Elevation : 17 ft


KFMY - Page Field

CURRENT METAR :
  • 271353Z 11009KT 10SM CLR 27/25 A3006 RMK AO2 SLP180 T02720250

EXPIRED METARs :
  • 271253Z 10008KT 10SM CLR 26/24 A3004 RMK AO2 SLP174 T02560244
  • 271153Z 10006KT 10SM CLR 24/24 A3002 RMK AO2 SLP169 60001 70054 T02440244 10244 20233 51011

TAF KFMY
Valid from the 27 at 12:00 until the 28 at 12:00 UTC


271122Z 2712/2812 10009KT P6SM FEW010 SCT110 BKN250
FM272000 12010G15KT P6SM VCSH SCT030 BKN250
FM280000 12006KT P6SM FEW030 SCT250
KZMA FIR / North America



MET'MAP, your aeronautical weather chart ! - Copyright ORBIFLY December 2007 - Disclaimer

ORBIFLY MET'MAP TEAM :

Programming & Development : Alexandra Zaïnal
Concept & original design : Baudouin d'Aumeries
Assistance for programming : Marc-Olivier Méhu
Technical & hardware support : Manuel Goepfert

Contact : metmap@orbifly.com




SOURCES & CREDITS :

   NOAA       Earth
Advisory